Gdansk, Poland
Current Conditions -  °F | °C
As of 2:00 AM on Monday 24 Nov 2014 (Local Time) from EPGD Reporting Station
Haze Haze  
Wind Chill: 28°   Ceiling: 800
Heat Index: 36°   Visibility: 1.8mi
Dew Point: 34°   Wind: 12mph
Humidity: 93%   Direction: 160°SSE
Pressure: 30.33"   Gusts: NA
Location:  54.36°N, 18.64°E
Report Text: EPGD 240000Z 16010KT 120V190 3000 BR BKN008 02/01 Q1027
Loading
Personal Weather Stations






























Interactive Weather Map New forecast layout! Learn more

10-Day Weather Forecast

Advertisements
Track Severe Weather on mobile